Terminal Aerodrome Forecast
Issued by NWS

Home | Current Version | Previous Version | Text Only | Print | Product List | Glossary On
Versions: 1 2 3 4 5 6 7 8 9 10 11 12 13 14 15 16 17 18 19 20 21 22 23 24
000
FTAK31 PAJN 031330 AAA
TAFAYA
TAF AMD
PAYA 031330Z 0314/0412 00000KT 6SM BR VCFG FEW002
      TEMPO 0314/0316 1SM BR OVC001
     FM031800 29007KT P6SM FEW200
     FM040500 VRB03KT P6SM VCFG FEW200=

USA.gov is the U.S. government's official web portal to all federal, state and local government web resources and services.